Blue Anchor, New Jersey
Current Conditions -  °F | °C
As of 12:26 PM on Monday 24 Nov 2014 (Local Time) from KACY Reporting Station
Few Clouds Few Clouds  
Wind Chill: 65°   Ceiling: Unl
Heat Index: 65°   Visibility: 10mi
Dew Point: 60°   Wind: 9mph
Humidity: 84%   Direction: 180°S
Pressure: 29.67"   Gusts: NA
Location:  39.637°N, 74.7602°W
Report Text: KACY 241726Z 18008KT 10SM FEW025 18/16 A2967 RMK AO2 T01830156
Loading
Personal Weather Stations






























Interactive Weather Map New forecast layout! Learn more

10-Day Weather Forecast

Advertisements
Track Severe Weather on mobile